Time;durP1;ratioP1;P1;durP2;ratioP2;P2;SDS_P1;SDS_P2;PMS_P1;PMS_P2;Temp;Humidity;BMP_temperature;BMP_pressure;BME280_temperature;BME280_humidity;BME280_pressure;Samples;Min_cycle;Max_cycle;Signal;HPM_P1;HPM_P2
2022/07/31 18:08:00;;;;;;;;;;;24.50;69.40;;;;;;5109244;27;20363;-89
2022/07/31 18:10:26;;;;;;;;;;;24.30;70.20;;;;;;5101002;28;20339;-90
2022/07/31 18:12:51;;;;;;;;;;;24.30;71.20;;;;;;5092092;28;19917;-89
2022/07/31 18:15:17;;;;;;;;;;;24.30;71.70;;;;;;5101281;28;20355;-89
2022/07/31 18:17:48;;;;;;;;;;;24.30;72.20;;;;;;5110480;28;19953;-89
2022/07/31 18:20:16;;;;;;;;;;;24.40;72.50;;;;;;5112104;28;20252;-89
2022/07/31 18:22:41;;;;;;;;;;;24.50;72.70;;;;;;5111860;28;19908;-89
2022/07/31 18:25:07;;;;;;;;;;;24.50;72.50;;;;;;5110768;28;19908;-88
2022/07/31 18:27:33;;;;;;;;;;;24.50;72.50;;;;;;5109779;28;19919;-89
2022/07/31 18:29:58;;;;;;;;;;;24.60;72.70;;;;;;5090894;28;19912;-88
2022/07/31 18:32:24;;;;;;;;;;;24.60;72.70;;;;;;5105532;28;19919;-88
2022/07/31 18:34:49;;;;;;;;;;;24.60;72.80;;;;;;5099491;28;19912;-88
2022/07/31 18:37:15;;;;;;;;;;;24.60;72.50;;;;;;5109505;28;20502;-89
2022/07/31 18:39:43;;;;;;;;;;;24.60;72.40;;;;;;5098370;28;19994;-88
2022/07/31 18:42:08;;;;;;;;;;;24.70;72.30;;;;;;5091818;28;19926;-89
2022/07/31 18:44:34;;;;;;;;;;;24.70;72.40;;;;;;5095332;28;19912;-89
2022/07/31 18:46:59;;;;;;;;;;;24.70;72.70;;;;;;5102088;28;19916;-88
2022/07/31 18:49:25;;;;;;;;;;;24.70;72.90;;;;;;5105440;28;19912;-89
2022/07/31 18:51:50;;;;;;;;;;;24.70;73.10;;;;;;5103725;28;19912;-89
2022/07/31 18:54:16;;;;;;;;;;;24.70;73.10;;;;;;5101822;28;19916;-88
2022/07/31 18:56:42;;;;;;;;;;;24.60;73.20;;;;;;5107476;28;19914;-89
2022/07/31 18:59:07;;;;;;;;;;;24.60;73.20;;;;;;5096836;28;19987;-90
2022/07/31 19:01:33;;;;;;;;;;;24.60;73.20;;;;;;5102142;28;19928;-89
2022/07/31 19:03:59;;;;;;;;;;;24.60;73.10;;;;;;5097402;28;20380;-88
2022/07/31 19:06:24;;;;;;;;;;;24.50;73.10;;;;;;5101564;28;19931;-92
2022/07/31 19:08:50;;;;;;;;;;;24.50;73.10;;;;;;5100937;28;19919;-91
2022/07/31 19:11:19;;;;;;;;;;;24.50;73.20;;;;;;5098996;28;19917;-91
2022/07/31 19:13:45;;;;;;;;;;;24.50;73.50;;;;;;5097108;28;19912;-93
2022/07/31 19:16:11;;;;;;;;;;;24.40;73.60;;;;;;5095533;28;20021;-92
2022/07/31 19:18:38;;;;;;;;;;;24.40;73.70;;;;;;5087425;28;20384;-92
2022/07/31 19:21:04;;;;;;;;;;;24.40;73.70;;;;;;5076879;28;19909;-92
2022/07/31 19:23:29;;;;;;;;;;;24.40;73.70;;;;;;5088347;28;19920;-92
2022/07/31 19:25:55;;;;;;;;;;;24.40;74.10;;;;;;5086272;28;19920;-94
2022/07/31 19:28:20;;;;;;;;;;;24.30;74.10;;;;;;5087697;28;19962;-94
2022/07/31 19:30:46;;;;;;;;;;;24.30;74.20;;;;;;5085294;28;19913;-94
2022/07/31 19:33:11;;;;;;;;;;;24.30;74.10;;;;;;5080191;28;19915;-94
2022/07/31 19:35:37;;;;;;;;;;;24.30;74.10;;;;;;5095606;28;19954;-95
2022/07/31 19:59:11;;;;;;;;;;;23.40;73.20;;;;;;5092378;27;19919;-92
2022/07/31 20:01:36;;;;;;;;;;;23.20;74.10;;;;;;5124745;28;20339;-93
2022/07/31 20:04:02;;;;;;;;;;;23.20;75.00;;;;;;5090921;28;19912;-92
2022/07/31 20:06:28;;;;;;;;;;;23.20;75.80;;;;;;5089946;28;20272;-91
2022/07/31 20:08:53;;;;;;;;;;;23.10;76.50;;;;;;5088503;28;20303;-93
2022/07/31 20:11:19;;;;;;;;;;;23.10;76.80;;;;;;5089255;28;19920;-91
2022/07/31 20:13:44;;;;;;;;;;;23.10;77.20;;;;;;5089823;28;20348;-93
2022/07/31 20:16:10;;;;;;;;;;;23.10;77.40;;;;;;5089260;28;20384;-91
2022/07/31 20:18:35;;;;;;;;;;;23.10;77.60;;;;;;5090460;28;20530;-92
2022/07/31 20:21:02;;;;;;;;;;;23.10;77.80;;;;;;5089468;28;20272;-94
2022/07/31 21:17:15;;;;;;;;;;;21.40;81.90;;;;;;5132047;27;20394;-91
2022/07/31 21:36:01;;;;;;;;;;;21.20;85.30;;;;;;4930474;28;20294;-91
2022/07/31 21:38:26;;;;;;;;;;;21.20;86.80;;;;;;4935317;28;20010;-91
2022/07/31 21:40:53;;;;;;;;;;;21.20;87.90;;;;;;4930535;28;19989;-91
2022/07/31 21:43:19;;;;;;;;;;;21.30;88.70;;;;;;4929603;29;19915;-92
